Time;durP1;ratioP1;P1;durP2;ratioP2;P2;SDS_P1;SDS_P2;PMS_P1;PMS_P2;Temp;Humidity;BMP_temperature;BMP_pressure;BME280_temperature;BME280_humidity;BME280_pressure;Samples;Min_cycle;Max_cycle;Signal;HPM_P1;HPM_P2
2022/10/29 00:00:17;;;;;;;26.47;12.83;;;13.40;99.90;;;;;;5055546;28;20623;-66
2022/10/29 00:02:47;;;;;;;17.43;9.87;;;13.40;99.90;;;;;;5056500;28;20627;-66
2022/10/29 00:05:15;;;;;;;22.00;10.60;;;13.40;99.90;;;;;;5056371;28;20628;-67
2022/10/29 00:07:43;;;;;;;27.43;16.37;;;13.30;99.90;;;;;;5065703;28;20965;-66
2022/10/29 00:10:12;;;;;;;20.00;10.70;;;13.20;99.90;;;;;;5054243;28;20601;-65
2022/10/29 00:12:40;;;;;;;16.97;11.80;;;13.20;99.90;;;;;;5068167;28;21063;-65
2022/10/29 00:15:09;;;;;;;25.13;12.10;;;13.10;99.90;;;;;;5060947;28;20676;-66
2022/10/29 00:17:37;;;;;;;17.63;8.73;;;13.00;99.90;;;;;;5053739;28;21019;-66
2022/10/29 00:20:09;;;;;;;16.63;8.50;;;12.90;99.90;;;;;;5056202;28;20707;-66
2022/10/29 00:22:37;;;;;;;14.20;9.00;;;12.90;99.90;;;;;;5056629;28;20622;-67
2022/10/29 00:25:06;;;;;;;12.53;9.60;;;12.80;99.90;;;;;;5065370;28;20619;-67
2022/10/29 00:27:34;;;;;;;18.60;11.70;;;12.80;99.90;;;;;;5054595;28;20627;-67
2022/10/29 00:30:02;;;;;;;25.97;11.47;;;12.70;99.90;;;;;;5071495;28;20675;-67
2022/10/29 00:32:31;;;;;;;14.67;9.30;;;12.60;99.90;;;;;;5074736;28;21250;-67
2022/10/29 00:34:59;;;;;;;21.63;11.03;;;12.60;99.90;;;;;;5076494;28;20618;-66
2022/10/29 00:37:28;;;;;;;22.43;12.50;;;12.60;99.90;;;;;;5079886;28;20592;-67
2022/10/29 00:39:56;;;;;;;22.53;10.60;;;12.60;99.90;;;;;;5061002;28;20635;-64
2022/10/29 00:42:24;;;;;;;12.67;8.60;;;12.70;99.90;;;;;;5071244;28;20675;-65
2022/10/29 00:44:54;;;;;;;18.63;9.80;;;12.70;99.90;;;;;;5067325;28;20620;-64
2022/10/29 00:47:25;;;;;;;14.70;8.53;;;12.70;99.90;;;;;;5068759;28;20679;-64
2022/10/29 00:49:58;;;;;;;14.57;7.90;;;12.70;99.90;;;;;;5073106;28;20582;-64
2022/10/29 00:52:30;;;;;;;12.30;7.47;;;12.80;99.90;;;;;;5072724;28;20659;-64
2022/10/29 00:55:00;;;;;;;25.63;9.00;;;12.80;99.90;;;;;;5056638;28;21028;-64
2022/10/29 00:57:38;;;;;;;13.60;8.27;;;12.70;99.90;;;;;;5068457;28;20672;-64
2022/10/29 01:00:13;;;;;;;7.73;6.80;;;12.60;99.90;;;;;;5055488;28;20577;-64
2022/10/29 01:02:43;;;;;;;13.93;6.20;;;12.60;99.90;;;;;;5053300;28;20665;-64
2022/10/29 01:05:14;;;;;;;10.57;6.40;;;12.60;99.90;;;;;;5064020;28;20622;-64
2022/10/29 01:07:44;;;;;;;9.50;7.00;;;12.50;99.90;;;;;;5054075;28;20657;-64
2022/10/29 01:10:13;;;;;;;8.80;7.90;;;12.50;99.90;;;;;;5052058;28;20605;-64
2022/10/29 01:13:08;;;;;;;12.03;7.47;;;12.40;99.90;;;;;;5053543;28;21072;-64
2022/10/29 01:15:43;;;;;;;17.73;7.27;;;12.40;99.90;;;;;;5064751;28;20577;-64
2022/10/29 01:18:20;;;;;;;18.20;6.80;;;12.30;99.90;;;;;;5052084;28;20590;-64
2022/10/29 01:21:34;;;;;;;10.93;6.00;;;12.30;99.90;;;;;;5064194;28;20595;-64
2022/10/29 01:24:50;;;;;;;11.70;6.80;;;12.30;99.90;;;;;;5072833;28;20956;-64
2022/10/29 01:27:51;;;;;;;8.30;5.90;;;12.40;99.90;;;;;;5072335;28;20979;-64
2022/10/29 01:30:29;;;;;;;8.93;5.40;;;12.40;99.90;;;;;;5072318;28;20596;-64
2022/10/29 01:33:10;;;;;;;8.07;6.57;;;12.30;99.90;;;;;;5060438;28;20659;-64
2022/10/29 01:35:46;;;;;;;7.73;6.03;;;12.30;99.90;;;;;;5052236;28;21117;-64
2022/10/29 01:38:24;;;;;;;10.20;6.80;;;12.30;99.90;;;;;;5052439;28;20593;-64
2022/10/29 01:41:00;;;;;;;10.07;6.93;;;12.30;99.90;;;;;;5052160;28;20594;-64
2022/10/29 01:43:35;;;;;;;9.97;6.33;;;12.30;99.90;;;;;;5052148;28;20577;-64
2022/10/29 01:46:08;;;;;;;14.57;7.27;;;12.30;99.90;;;;;;5052282;28;20630;-64
2022/10/29 01:48:42;;;;;;;9.93;6.90;;;12.30;99.90;;;;;;5051940;28;20579;-64
2022/10/29 01:51:17;;;;;;;9.68;7.32;;;12.30;99.90;;;;;;5052178;28;21081;-64
2022/10/29 01:53:46;;;;;;;11.80;6.87;;;12.30;99.90;;;;;;5051029;28;20232;-64
2022/10/29 01:56:14;;;;;;;18.57;6.63;;;12.20;99.90;;;;;;5052429;28;20589;-64
2022/10/29 01:58:47;;;;;;;10.53;6.00;;;12.20;99.90;;;;;;5051059;28;20619;-64
2022/10/29 02:01:26;;;;;;;8.53;6.17;;;12.20;99.90;;;;;;5051888;28;20575;-64
2022/10/29 02:04:01;;;;;;;10.10;6.90;;;12.30;99.90;;;;;;5050279;28;20569;-64
2022/10/29 02:06:40;;;;;;;12.73;6.45;;;12.30;99.90;;;;;;5051452;28;20582;-64
2022/10/29 02:09:16;;;;;;;10.43;5.90;;;12.30;99.90;;;;;;5060825;28;20195;-64
2022/10/29 02:11:48;;;;;;;9.20;6.20;;;12.30;99.90;;;;;;5071663;28;20951;-64
2022/10/29 02:14:23;;;;;;;8.83;5.30;;;12.30;99.90;;;;;;5069844;28;20641;-65
2022/10/29 02:16:51;;;;;;;7.40;5.13;;;12.20;99.90;;;;;;5072034;28;20683;-64
2022/10/29 02:19:20;;;;;;;9.82;5.35;;;12.10;99.90;;;;;;5058481;28;20622;-64
2022/10/29 02:21:50;;;;;;;5.80;5.20;;;12.10;99.90;;;;;;5054236;28;20908;-64
2022/10/29 02:24:17;;;;;;;9.80;5.63;;;12.10;99.90;;;;;;5053284;28;20627;-65
2022/10/29 02:26:45;;;;;;;14.17;7.30;;;12.10;99.90;;;;;;5061919;28;20676;-64
2022/10/29 02:29:13;;;;;;;8.87;5.33;;;12.10;99.90;;;;;;5053124;28;20619;-64
2022/10/29 02:31:41;;;;;;;6.63;4.88;;;12.00;99.90;;;;;;5071997;28;20618;-64
2022/10/29 02:34:09;;;;;;;9.50;5.10;;;12.00;99.90;;;;;;5075385;28;20698;-64
2022/10/29 02:36:38;;;;;;;12.00;6.10;;;12.00;99.90;;;;;;5075065;28;21172;-64
2022/10/29 02:39:06;;;;;;;8.77;5.53;;;12.00;99.90;;;;;;5075255;28;20610;-64
2022/10/29 02:41:34;;;;;;;14.75;6.97;;;11.90;99.90;;;;;;5075304;28;20618;-64
2022/10/29 02:44:01;;;;;;;10.87;6.83;;;12.00;99.90;;;;;;5056153;28;20200;-64
2022/10/29 02:46:30;;;;;;;10.30;6.40;;;12.00;99.90;;;;;;5061829;28;20609;-64
2022/10/29 02:48:58;;;;;;;13.00;7.00;;;12.00;99.90;;;;;;5075018;28;20629;-64
2022/10/29 02:51:26;;;;;;;16.20;6.40;;;12.00;99.90;;;;;;5074568;28;20624;-64
2022/10/29 02:53:55;;;;;;;17.73;7.70;;;12.00;99.90;;;;;;5074667;28;20676;-64
2022/10/29 02:56:23;;;;;;;13.20;8.23;;;12.00;99.90;;;;;;5075177;28;20649;-64
2022/10/29 02:58:51;;;;;;;15.63;7.20;;;11.90;99.90;;;;;;5075110;28;20210;-64
2022/10/29 03:01:18;;;;;;;9.15;6.82;;;11.90;99.90;;;;;;5074441;28;20618;-64
2022/10/29 03:03:46;;;;;;;8.60;6.67;;;11.80;99.90;;;;;;5073488;28;20207;-64
2022/10/29 03:06:14;;;;;;;11.70;6.30;;;11.90;99.90;;;;;;5073842;28;21030;-64
2022/10/29 03:08:42;;;;;;;6.33;5.73;;;11.80;99.90;;;;;;5074326;28;21173;-64
2022/10/29 03:11:12;;;;;;;8.50;5.47;;;11.80;99.90;;;;;;5073881;28;20605;-64
2022/10/29 03:13:40;;;;;;;10.87;5.67;;;11.80;99.90;;;;;;5072603;28;20204;-64
2022/10/29 03:16:08;;;;;;;10.30;5.90;;;11.80;99.90;;;;;;5063046;28;20623;-64
2022/10/29 03:18:36;;;;;;;11.00;5.90;;;11.80;99.90;;;;;;5054855;28;20605;-64
2022/10/29 03:21:04;;;;;;;8.33;4.83;;;11.80;99.90;;;;;;5054544;28;20596;-64
2022/10/29 03:23:32;;;;;;;5.63;5.13;;;11.70;99.90;;;;;;5055167;28;21005;-64
2022/10/29 03:26:01;;;;;;;8.07;5.88;;;11.80;99.90;;;;;;5057988;28;20677;-64
2022/10/29 03:28:30;;;;;;;7.22;5.82;;;11.70;99.90;;;;;;5073535;28;20550;-64
2022/10/29 03:30:58;;;;;;;9.85;6.25;;;11.70;99.90;;;;;;5054917;28;20204;-64
2022/10/29 03:33:27;;;;;;;8.00;5.70;;;11.70;99.90;;;;;;5054007;28;20644;-64
2022/10/29 03:35:58;;;;;;;7.17;5.70;;;11.70;99.90;;;;;;5054613;28;20647;-64
2022/10/29 03:38:26;;;;;;;12.00;6.20;;;11.70;99.90;;;;;;5073260;28;20683;-63
2022/10/29 03:40:54;;;;;;;10.15;5.93;;;11.70;99.90;;;;;;5073866;28;20200;-63
2022/10/29 03:43:23;;;;;;;7.57;5.10;;;11.70;99.90;;;;;;5073561;28;20199;-63
2022/10/29 03:45:52;;;;;;;8.00;5.60;;;11.70;99.90;;;;;;5074450;28;20207;-63
2022/10/29 03:48:20;;;;;;;6.90;6.20;;;11.70;99.90;;;;;;5055343;28;20193;-63
2022/10/29 03:50:54;;;;;;;8.70;5.17;;;11.70;99.90;;;;;;5073739;28;20215;-64
2022/10/29 03:53:23;;;;;;;11.40;6.50;;;11.60;99.90;;;;;;5073031;28;20657;-63
2022/10/29 03:55:51;;;;;;;15.93;5.45;;;11.60;99.90;;;;;;5073945;28;20203;-63
2022/10/29 03:58:21;;;;;;;18.73;7.00;;;11.70;99.90;;;;;;5068995;28;20219;-63
2022/10/29 04:00:55;;;;;;;8.47;5.17;;;11.60;99.90;;;;;;5073032;28;20658;-64
2022/10/29 04:03:23;;;;;;;7.43;5.87;;;11.60;99.90;;;;;;5068443;28;21182;-63
2022/10/29 04:05:51;;;;;;;8.30;5.60;;;11.60;99.90;;;;;;5064837;28;21146;-63
2022/10/29 04:08:19;;;;;;;8.27;5.70;;;11.60;99.90;;;;;;5074026;28;20590;-63
2022/10/29 04:10:48;;;;;;;11.20;6.67;;;11.60;99.90;;;;;;5054820;28;20615;-64
2022/10/29 04:13:20;;;;;;;12.15;6.30;;;11.50;99.90;;;;;;5053754;28;20654;-64
2022/10/29 04:15:48;;;;;;;11.07;6.30;;;11.50;99.90;;;;;;5053246;28;20192;-63
2022/10/29 04:18:17;;;;;;;11.50;5.90;;;11.50;99.90;;;;;;5053628;28;20200;-64
2022/10/29 04:20:45;;;;;;;19.03;6.60;;;11.50;99.90;;;;;;5053715;28;20570;-63
2022/10/29 04:23:13;;;;;;;9.60;6.60;;;11.50;99.90;;;;;;5073323;28;20614;-63
2022/10/29 04:25:40;;;;;;;10.47;6.70;;;11.50;99.90;;;;;;5073289;28;21028;-63
2022/10/29 04:28:08;;;;;;;8.93;5.73;;;11.50;99.90;;;;;;5073444;28;20610;-63
2022/10/29 04:30:36;;;;;;;7.07;6.37;;;11.50;99.90;;;;;;5073433;28;20628;-63
2022/10/29 04:33:04;;;;;;;9.53;5.70;;;11.50;99.90;;;;;;5073264;28;20720;-64
2022/10/29 04:35:35;;;;;;;15.80;5.53;;;11.50;99.90;;;;;;5073420;28;21143;-63
2022/10/29 04:38:08;;;;;;;7.83;6.70;;;11.50;99.90;;;;;;5073122;28;20606;-63
2022/10/29 04:40:36;;;;;;;6.77;5.10;;;11.50;99.90;;;;;;5073431;28;20570;-63
2022/10/29 04:43:04;;;;;;;10.07;5.90;;;11.40;99.90;;;;;;5072611;28;21049;-64
2022/10/29 04:45:32;;;;;;;9.87;5.70;;;11.50;99.90;;;;;;5072981;28;20612;-63
2022/10/29 04:48:00;;;;;;;10.60;5.67;;;11.50;99.90;;;;;;5071649;28;20600;-64
2022/10/29 04:50:28;;;;;;;8.97;5.63;;;11.40;99.90;;;;;;5071755;28;20618;-63
2022/10/29 04:53:00;;;;;;;12.33;5.40;;;11.40;99.90;;;;;;5071081;28;20654;-63
2022/10/29 04:55:28;;;;;;;5.90;5.30;;;11.40;99.90;;;;;;5072920;28;20579;-64
2022/10/29 04:57:56;;;;;;;10.80;5.30;;;11.40;99.90;;;;;;5071853;28;20649;-64
2022/10/29 05:00:24;;;;;;;13.73;6.07;;;11.40;99.90;;;;;;5072468;28;20651;-64
2022/10/29 05:02:53;;;;;;;15.83;5.90;;;11.50;99.90;;;;;;5070298;28;20622;-63
2022/10/29 05:05:21;;;;;;;7.45;5.60;;;11.40;99.90;;;;;;5065991;28;20715;-63
2022/10/29 05:07:49;;;;;;;11.63;7.30;;;11.40;99.90;;;;;;5064376;28;20212;-63
2022/10/29 05:10:19;;;;;;;11.73;5.63;;;11.30;99.90;;;;;;5072731;28;20649;-64
2022/10/29 05:12:47;;;;;;;10.82;6.20;;;11.30;99.90;;;;;;5054631;28;20629;-63
2022/10/29 05:15:15;;;;;;;9.97;6.90;;;11.30;99.90;;;;;;5069773;28;20216;-63
2022/10/29 05:17:43;;;;;;;14.17;6.40;;;11.30;99.90;;;;;;5070325;28;20625;-63
2022/10/29 05:20:11;;;;;;;10.07;6.63;;;11.30;99.90;;;;;;5061572;28;21184;-63
2022/10/29 05:22:39;;;;;;;10.60;6.03;;;11.30;99.90;;;;;;5070344;28;20622;-64
2022/10/29 05:25:07;;;;;;;12.70;6.80;;;11.30;99.90;;;;;;5067245;28;20627;-63
2022/10/29 05:27:37;;;;;;;8.73;6.23;;;11.30;99.90;;;;;;5051709;28;20211;-63
2022/10/29 05:30:06;;;;;;;9.80;5.23;;;11.30;99.90;;;;;;5052145;28;20626;-63
2022/10/29 05:32:33;;;;;;;6.90;5.40;;;11.30;99.90;;;;;;5051886;28;20630;-63
2022/10/29 05:35:01;;;;;;;15.83;6.60;;;11.20;99.90;;;;;;5052071;28;20655;-63
2022/10/29 05:37:30;;;;;;;11.40;6.20;;;11.20;99.90;;;;;;5058647;28;21176;-63
2022/10/29 05:39:58;;;;;;;9.97;6.30;;;11.20;99.90;;;;;;5071808;28;20614;-63
2022/10/29 05:42:27;;;;;;;6.45;5.85;;;11.20;99.90;;;;;;5072012;28;20621;-63
2022/10/29 05:44:56;;;;;;;9.67;6.10;;;11.20;99.90;;;;;;5071719;28;20678;-65
2022/10/29 05:47:24;;;;;;;11.02;7.95;;;11.20;99.90;;;;;;5071880;28;21167;-63
2022/10/29 05:49:52;;;;;;;15.30;8.02;;;11.20;99.90;;;;;;5071999;28;20200;-63
2022/10/29 05:52:19;;;;;;;15.25;7.57;;;11.20;99.90;;;;;;5071621;28;20200;-63
2022/10/29 05:54:47;;;;;;;13.52;8.00;;;11.30;99.90;;;;;;5070744;28;20219;-64
2022/10/29 05:57:15;;;;;;;14.73;8.00;;;11.30;99.90;;;;;;5071464;28;20231;-63
2022/10/29 05:59:43;;;;;;;8.27;7.00;;;11.30;99.90;;;;;;5072168;28;20253;-63
2022/10/29 06:02:13;;;;;;;12.90;8.60;;;11.30;99.90;;;;;;5069311;28;20620;-63
2022/10/29 06:04:40;;;;;;;11.30;8.00;;;11.40;99.90;;;;;;5075672;28;20617;-63
2022/10/29 06:07:08;;;;;;;19.23;8.10;;;11.40;99.90;;;;;;5077719;28;20195;-63
2022/10/29 06:09:36;;;;;;;8.67;7.00;;;11.40;99.90;;;;;;5079126;28;20207;-64
2022/10/29 06:12:05;;;;;;;10.43;7.73;;;11.30;99.90;;;;;;5077962;28;20588;-63
2022/10/29 06:14:33;;;;;;;6.90;6.13;;;11.40;99.90;;;;;;5067253;28;20711;-63
2022/10/29 06:17:01;;;;;;;10.93;7.03;;;11.30;99.90;;;;;;5058077;28;20589;-63
2022/10/29 06:19:30;;;;;;;9.60;7.03;;;11.30;99.90;;;;;;5058769;28;20625;-63
2022/10/29 06:21:58;;;;;;;9.20;6.10;;;11.20;99.90;;;;;;5065924;28;20628;-63
2022/10/29 06:24:26;;;;;;;11.70;6.03;;;11.20;99.90;;;;;;5062391;28;20622;-63
2022/10/29 06:26:54;;;;;;;9.70;7.03;;;11.20;99.90;;;;;;5060417;28;20611;-63
2022/10/29 06:29:22;;;;;;;8.13;7.00;;;11.20;99.90;;;;;;5078340;28;20200;-63
2022/10/29 06:31:50;;;;;;;16.57;6.53;;;11.10;99.90;;;;;;5077969;28;20984;-63
2022/10/29 06:34:18;;;;;;;10.50;6.60;;;11.10;99.90;;;;;;5075195;28;20636;-63
2022/10/29 06:36:48;;;;;;;9.40;6.37;;;11.10;99.90;;;;;;5076537;28;20618;-64
2022/10/29 06:39:15;;;;;;;11.82;6.82;;;11.20;99.90;;;;;;5075099;28;20627;-64
2022/10/29 06:41:43;;;;;;;10.90;6.77;;;11.20;99.90;;;;;;5077089;28;20240;-64
2022/10/29 06:44:18;;;;;;;15.90;8.43;;;11.30;99.90;;;;;;5076393;28;20661;-64
2022/10/29 06:46:46;;;;;;;13.60;8.53;;;11.30;99.90;;;;;;5077605;28;20629;-64
2022/10/29 06:49:14;;;;;;;15.13;8.40;;;11.30;99.90;;;;;;5076049;28;21191;-64
2022/10/29 06:51:41;;;;;;;14.60;6.67;;;11.40;99.90;;;;;;5077201;28;20605;-65
2022/10/29 06:54:11;;;;;;;11.30;6.87;;;11.30;99.90;;;;;;5076791;28;20649;-64
2022/10/29 06:56:39;;;;;;;16.80;8.10;;;11.40;99.90;;;;;;5077216;28;20642;-64
2022/10/29 06:59:07;;;;;;;12.63;7.50;;;11.40;99.90;;;;;;5076609;28;21179;-64
2022/10/29 07:01:35;;;;;;;8.87;7.97;;;11.50;99.90;;;;;;5076117;28;20618;-65
2022/10/29 07:04:03;;;;;;;10.93;6.20;;;11.50;99.90;;;;;;5066539;28;20635;-64
2022/10/29 07:06:33;;;;;;;9.80;7.07;;;11.60;99.90;;;;;;5063242;28;21197;-64
2022/10/29 07:09:01;;;;;;;11.50;7.63;;;11.70;99.90;;;;;;5068938;28;20590;-64
2022/10/29 07:11:30;;;;;;;14.73;7.77;;;11.70;99.90;;;;;;5063094;28;20611;-64
2022/10/29 07:13:59;;;;;;;12.15;7.22;;;11.70;99.90;;;;;;5075692;28;20660;-64
2022/10/29 07:16:26;;;;;;;8.87;6.57;;;11.70;99.90;;;;;;5072436;28;20593;-66
2022/10/29 07:18:55;;;;;;;13.82;8.30;;;11.80;99.90;;;;;;5074053;28;20600;-64
2022/10/29 07:21:23;;;;;;;11.77;8.02;;;11.90;99.90;;;;;;5073370;28;20291;-64
2022/10/29 07:23:51;;;;;;;12.33;7.40;;;11.90;99.90;;;;;;5073896;28;20211;-64
2022/10/29 07:26:19;;;;;;;13.90;7.70;;;12.10;99.90;;;;;;5072818;28;20626;-64
2022/10/29 07:28:48;;;;;;;14.90;8.37;;;12.20;99.90;;;;;;5073629;28;20634;-65
2022/10/29 07:31:16;;;;;;;12.10;9.27;;;12.20;99.90;;;;;;5075401;28;20601;-65
2022/10/29 07:33:44;;;;;;;17.37;9.20;;;12.30;99.90;;;;;;5071911;28;20611;-64
2022/10/29 07:36:12;;;;;;;11.20;7.73;;;12.40;99.90;;;;;;5070083;28;21186;-64
2022/10/29 07:38:40;;;;;;;12.10;7.53;;;12.50;99.90;;;;;;5069232;28;21199;-65
2022/10/29 07:41:08;;;;;;;13.60;8.50;;;12.50;99.90;;;;;;5084924;28;20653;-64
2022/10/29 07:43:36;;;;;;;17.07;8.77;;;12.40;99.90;;;;;;5073379;28;20973;-64
2022/10/29 07:46:05;;;;;;;14.00;7.40;;;12.50;99.90;;;;;;5074837;28;20638;-64
2022/10/29 07:48:33;;;;;;;14.17;8.87;;;12.40;99.90;;;;;;5068409;28;21049;-64
2022/10/29 07:51:02;;;;;;;15.07;9.77;;;12.50;99.90;;;;;;5073476;28;20629;-64
2022/10/29 07:53:31;;;;;;;20.63;9.13;;;12.50;99.90;;;;;;5074291;28;20673;-64
2022/10/29 07:55:59;;;;;;;16.10;8.73;;;12.60;99.90;;;;;;5074564;28;20680;-64
2022/10/29 07:58:27;;;;;;;16.53;9.67;;;12.70;99.90;;;;;;5068880;28;20634;-64
2022/10/29 08:00:55;;;;;;;15.17;10.77;;;12.90;99.90;;;;;;5070195;28;20984;-64
2022/10/29 08:03:25;;;;;;;17.70;10.53;;;13.00;99.90;;;;;;5061489;28;20631;-64
2022/10/29 08:05:56;;;;;;;16.93;9.80;;;13.20;99.90;;;;;;5061608;28;20638;-64
2022/10/29 08:08:24;;;;;;;15.50;9.83;;;13.40;99.90;;;;;;5065175;28;20644;-64
2022/10/29 08:10:52;;;;;;;14.73;8.30;;;13.50;99.90;;;;;;5064802;28;20689;-64
2022/10/29 08:13:20;;;;;;;17.33;8.77;;;13.60;99.90;;;;;;5068633;28;20952;-64
2022/10/29 08:15:48;;;;;;;17.93;8.63;;;13.70;99.90;;;;;;5065439;28;20663;-65
2022/10/29 08:18:17;;;;;;;10.57;7.73;;;13.90;99.90;;;;;;5062271;28;20593;-65
2022/10/29 08:20:47;;;;;;;11.73;8.50;;;14.10;99.90;;;;;;5068364;28;20626;-65
2022/10/29 08:23:15;;;;;;;15.17;8.90;;;14.30;99.90;;;;;;5066651;28;20623;-64
2022/10/29 08:25:43;;;;;;;19.73;7.33;;;14.60;99.90;;;;;;5059614;28;20638;-64
2022/10/29 08:28:13;;;;;;;15.67;8.30;;;14.90;99.90;;;;;;5077175;28;21012;-64
2022/10/29 08:30:42;;;;;;;16.50;7.70;;;15.20;99.90;;;;;;5075630;28;20977;-65
2022/10/29 08:33:10;;;;;;;17.40;8.10;;;15.30;99.90;;;;;;5059922;28;20639;-65
2022/10/29 08:35:38;;;;;;;15.80;7.93;;;15.40;99.90;;;;;;5068026;28;21027;-64
2022/10/29 08:38:10;;;;;;;17.07;7.73;;;15.40;99.90;;;;;;5065340;28;20622;-65
2022/10/29 08:40:51;;;;;;;18.80;7.63;;;15.70;99.90;;;;;;5065698;28;20738;-64
2022/10/29 08:44:07;;;;;;;15.97;7.17;;;15.70;99.90;;;;;;5066106;28;20628;-64
2022/10/29 08:46:43;;;;;;;15.57;6.93;;;15.70;99.90;;;;;;5065470;28;20649;-64
2022/10/29 08:49:17;;;;;;;12.83;8.53;;;15.80;99.90;;;;;;5067850;28;20706;-64
2022/10/29 08:51:53;;;;;;;11.80;7.17;;;15.90;99.90;;;;;;5058443;28;21255;-64
2022/10/29 08:54:23;;;;;;;11.53;8.43;;;15.90;99.90;;;;;;5064706;28;20681;-65
2022/10/29 08:56:54;;;;;;;12.17;6.80;;;16.10;99.90;;;;;;5054136;28;20678;-65
2022/10/29 08:59:24;;;;;;;14.77;7.03;;;16.10;99.90;;;;;;5067606;28;20630;-65
2022/10/29 09:01:53;;;;;;;12.93;6.97;;;16.30;99.90;;;;;;5073733;28;20621;-65
2022/10/29 09:04:24;;;;;;;9.40;6.60;;;16.40;99.90;;;;;;5057537;28;20630;-65
2022/10/29 09:07:14;;;;;;;12.53;6.60;;;16.40;99.90;;;;;;5053511;28;20591;-65
2022/10/29 09:09:47;;;;;;;8.40;5.43;;;16.60;99.90;;;;;;5071082;28;20617;-65
2022/10/29 09:12:40;;;;;;;19.87;6.20;;;16.60;99.90;;;;;;5074078;28;20597;-65
2022/10/29 09:15:44;;;;;;;12.87;6.50;;;16.70;99.90;;;;;;5070137;28;20618;-65
2022/10/29 09:18:26;;;;;;;12.23;6.03;;;16.80;99.90;;;;;;5053744;28;20635;-65
2022/10/29 09:21:00;;;;;;;10.97;7.07;;;17.00;99.90;;;;;;5053536;28;20626;-65
2022/10/29 09:23:47;;;;;;;11.50;6.20;;;17.10;99.90;;;;;;5053151;28;20618;-65
2022/10/29 09:26:22;;;;;;;12.00;6.27;;;17.20;99.90;;;;;;5053522;28;21234;-66
2022/10/29 09:29:02;;;;;;;9.67;6.43;;;17.30;99.90;;;;;;5061817;28;20613;-65
2022/10/29 09:31:37;;;;;;;14.73;6.77;;;17.40;99.90;;;;;;5073521;28;20646;-66
2022/10/29 09:34:16;;;;;;;13.17;6.53;;;17.40;99.90;;;;;;5075908;28;21021;-66
2022/10/29 09:36:46;;;;;;;10.10;6.90;;;17.50;99.90;;;;;;5063647;28;20650;-65
2022/10/29 09:39:19;;;;;;;11.23;6.10;;;17.60;99.90;;;;;;5068234;28;20630;-65
2022/10/29 09:41:51;;;;;;;15.93;7.80;;;17.70;99.90;;;;;;5063649;28;20613;-65
2022/10/29 09:44:22;;;;;;;11.23;6.60;;;17.90;99.90;;;;;;5061665;28;20603;-65
2022/10/29 09:46:59;;;;;;;15.83;6.37;;;18.30;99.90;;;;;;5065460;28;20641;-65
2022/10/29 09:49:41;;;;;;;11.93;6.03;;;18.70;99.90;;;;;;5066379;28;21277;-66
2022/10/29 09:52:15;;;;;;;14.90;6.80;;;18.50;99.90;;;;;;5062971;28;20595;-65
2022/10/29 09:54:43;;;;;;;15.13;6.30;;;18.60;99.90;;;;;;5063358;28;20603;-65
2022/10/29 09:57:18;;;;;;;11.87;5.87;;;18.60;99.90;;;;;;5068880;28;20674;-65
2022/10/29 09:59:49;;;;;;;6.90;5.37;;;18.80;99.90;;;;;;5060757;28;20629;-65
2022/10/29 10:02:27;;;;;;;14.67;5.30;;;19.20;99.90;;;;;;5061250;28;20607;-65
2022/10/29 10:05:00;;;;;;;6.40;5.40;;;19.40;99.90;;;;;;5068343;28;21239;-65
2022/10/29 10:07:28;;;;;;;11.80;6.47;;;19.50;99.90;;;;;;5067238;28;20594;-65
2022/10/29 10:09:58;;;;;;;18.23;7.27;;;19.50;99.90;;;;;;5068300;28;20642;-65
2022/10/29 10:12:43;;;;;;;25.93;7.53;;;19.50;99.90;;;;;;5053897;28;20954;-65
2022/10/29 10:15:19;;;;;;;15.23;6.40;;;19.50;99.90;;;;;;5055439;28;20595;-67
2022/10/29 10:17:59;;;;;;;13.50;5.30;;;19.70;99.90;;;;;;5053856;28;20627;-66
2022/10/29 10:20:39;;;;;;;10.27;6.17;;;19.90;99.90;;;;;;5054872;28;20731;-68
2022/10/29 10:23:21;;;;;;;12.90;5.40;;;19.90;99.90;;;;;;5059210;28;20693;-66
2022/10/29 10:25:49;;;;;;;19.53;6.40;;;20.00;99.90;;;;;;5068820;28;20681;-65
2022/10/29 10:28:21;;;;;;;10.13;5.40;;;20.20;99.90;;;;;;5071493;28;20634;-66
2022/10/29 10:31:10;;;;;;;10.57;5.80;;;20.50;99.90;;;;;;5075595;28;20693;-66
2022/10/29 10:33:49;;;;;;;15.40;5.97;;;20.40;99.90;;;;;;5070641;28;20625;-66
2022/10/29 10:36:18;;;;;;;13.30;6.50;;;20.50;99.90;;;;;;5070889;28;20657;-65
2022/10/29 10:38:49;;;;;;;12.80;6.27;;;20.50;99.90;;;;;;5070615;28;20626;-65
2022/10/29 10:41:23;;;;;;;11.70;5.50;;;20.90;99.90;;;;;;5071380;28;21163;-67
2022/10/29 10:43:54;;;;;;;14.43;5.93;;;21.00;99.90;;;;;;5069675;28;20625;-65
2022/10/29 10:46:25;;;;;;;10.47;5.30;;;21.10;99.90;;;;;;5070624;28;20657;-65
2022/10/29 10:49:03;;;;;;;16.47;5.60;;;21.50;99.90;;;;;;5069907;28;20632;-66
2022/10/29 10:51:32;;;;;;;14.37;5.73;;;21.70;99.90;;;;;;5071796;28;20622;-65
2022/10/29 10:54:01;;;;;;;10.20;6.07;;;21.60;99.90;;;;;;5075459;28;20993;-65
2022/10/29 10:56:29;;;;;;;9.87;5.50;;;21.60;99.90;;;;;;5071690;28;21034;-65
2022/10/29 10:59:05;;;;;;;19.37;5.63;;;21.60;99.90;;;;;;5074353;28;20633;-64
2022/10/29 11:01:38;;;;;;;11.80;6.63;;;22.10;99.90;;;;;;5074168;28;20613;-65
2022/10/29 11:04:14;;;;;;;12.47;6.60;;;22.30;99.90;;;;;;5075655;28;20617;-64
2022/10/29 11:06:47;;;;;;;11.80;7.00;;;22.30;99.90;;;;;;5075068;28;21024;-66
2022/10/29 11:09:22;;;;;;;11.13;6.87;;;22.60;99.90;;;;;;5076007;28;20671;-66
2022/10/29 11:11:57;;;;;;;17.80;6.93;;;22.30;99.90;;;;;;5076101;28;20617;-66
2022/10/29 11:14:31;;;;;;;15.00;5.53;;;22.40;99.90;;;;;;5075020;28;21209;-65
2022/10/29 11:17:02;;;;;;;13.50;6.10;;;22.40;99.90;;;;;;5077958;28;20653;-66
2022/10/29 11:19:35;;;;;;;18.00;5.93;;;22.60;99.90;;;;;;5071689;28;20610;-64
2022/10/29 11:22:12;;;;;;;17.70;5.73;;;22.80;99.90;;;;;;5072481;28;20616;-67
2022/10/29 11:24:47;;;;;;;7.83;5.20;;;23.20;99.90;;;;;;5074026;28;20625;-66
2022/10/29 11:27:24;;;;;;;16.33;5.90;;;23.60;99.90;;;;;;5055850;28;20603;-65
2022/10/29 11:30:02;;;;;;;10.23;5.40;;;23.50;99.90;;;;;;5072526;28;20636;-65
2022/10/29 11:32:40;;;;;;;10.97;6.20;;;23.80;99.90;;;;;;5054147;28;20587;-65
2022/10/29 11:35:13;;;;;;;8.50;5.73;;;24.10;99.90;;;;;;5061699;28;20609;-65
2022/10/29 11:37:55;;;;;;;9.53;5.93;;;23.90;99.90;;;;;;5062852;28;20668;-66
2022/10/29 11:40:26;;;;;;;10.43;4.80;;;23.60;99.90;;;;;;5074473;28;20793;-65
2022/10/29 11:42:54;;;;;;;16.30;5.60;;;23.60;99.90;;;;;;5074610;28;20638;-66
2022/10/29 11:45:37;;;;;;;11.73;5.50;;;23.70;99.90;;;;;;5074879;28;20613;-65
2022/10/29 11:48:16;;;;;;;12.50;5.03;;;24.00;99.90;;;;;;5072031;28;20641;-66
2022/10/29 11:50:51;;;;;;;10.53;5.10;;;23.70;99.90;;;;;;5074516;28;20593;-66
2022/10/29 11:53:31;;;;;;;13.13;4.77;;;23.80;99.90;;;;;;5057841;28;20658;-66
2022/10/29 11:56:11;;;;;;;16.37;5.30;;;23.80;99.90;;;;;;5054641;28;20631;-66
2022/10/29 11:58:45;;;;;;;11.17;5.27;;;23.50;99.90;;;;;;5059837;28;20638;-66
2022/10/29 12:01:25;;;;;;;12.67;5.30;;;23.40;99.90;;;;;;5053394;28;20579;-66
2022/10/29 12:04:17;;;;;;;10.20;6.00;;;23.20;99.90;;;;;;5071788;28;20610;-65
2022/10/29 12:06:56;;;;;;;13.03;4.87;;;23.50;99.90;;;;;;5072809;28;20609;-66
2022/10/29 12:09:44;;;;;;;10.03;4.90;;;23.80;99.90;;;;;;5053740;28;20978;-65
2022/10/29 12:12:18;;;;;;;15.53;6.10;;;23.80;99.90;;;;;;5066256;28;20606;-65
2022/10/29 12:14:52;;;;;;;16.10;5.10;;;24.00;99.90;;;;;;5074111;28;20577;-67
2022/10/29 12:17:30;;;;;;;13.30;5.03;;;24.10;99.90;;;;;;5070543;28;20655;-67
2022/10/29 12:20:05;;;;;;;9.50;5.40;;;24.40;99.90;;;;;;5067638;28;20995;-65
2022/10/29 12:22:40;;;;;;;14.90;5.83;;;24.70;99.90;;;;;;5063429;28;20629;-65
2022/10/29 12:25:26;;;;;;;15.90;5.23;;;24.70;99.90;;;;;;5068037;28;20954;-65
2022/10/29 12:28:06;;;;;;;10.20;6.07;;;24.40;99.90;;;;;;5072586;28;20618;-65
2022/10/29 12:30:40;;;;;;;11.30;5.20;;;23.80;99.90;;;;;;5073115;28;21228;-66
2022/10/29 12:33:21;;;;;;;13.07;5.63;;;23.50;99.90;;;;;;5059684;28;20729;-66
2022/10/29 12:35:55;;;;;;;7.67;5.23;;;23.60;99.90;;;;;;5067369;28;20668;-65
2022/10/29 12:38:35;;;;;;;11.10;5.20;;;23.70;99.90;;;;;;5066796;28;20652;-65
2022/10/29 12:41:07;;;;;;;7.00;5.03;;;23.90;99.90;;;;;;5068611;28;20613;-71
2022/10/29 12:43:38;;;;;;;10.50;5.57;;;24.70;99.90;;;;;;5070985;28;20602;-65
2022/10/29 12:46:20;;;;;;;8.00;5.23;;;25.00;99.90;;;;;;5073384;28;21159;-65
2022/10/29 12:48:57;;;;;;;11.63;5.60;;;25.20;99.90;;;;;;5065561;28;20638;-65
2022/10/29 12:51:34;;;;;;;12.90;6.30;;;25.30;99.90;;;;;;5064252;28;20613;-65
2022/10/29 12:54:22;;;;;;;11.97;5.53;;;24.60;99.90;;;;;;5072409;28;20665;-65
2022/10/29 12:56:50;;;;;;;9.53;5.70;;;24.10;99.90;;;;;;5073316;28;20638;-65
2022/10/29 12:59:36;;;;;;;11.20;5.67;;;23.60;99.90;;;;;;5071737;28;20618;-65
2022/10/29 13:02:26;;;;;;;11.10;5.70;;;23.50;99.90;;;;;;5072735;28;20586;-65